Time;durP1;ratioP1;P1;durP2;ratioP2;P2;SDS_P1;SDS_P2;PMS_P1;PMS_P2;Temp;Humidity;BMP_temperature;BMP_pressure;BME280_temperature;BME280_humidity;BME280_pressure;Samples;Min_cycle;Max_cycle;Signal;HPM_P1;HPM_P2
2021/07/24 00:01:54;;;;;;;25.10;18.10;;;;;;;18.11;72.15;99876.59;254303;1104;115961;-66
2021/07/24 00:07:00;;;;;;;24.30;14.58;;;;;;;17.98;72.56;99871.84;256601;1104;115751;-66
2021/07/24 00:12:05;;;;;;;21.08;16.63;;;;;;;18.06;73.14;99868.52;255364;1104;115192;-66
2021/07/24 00:17:09;;;;;;;35.95;17.53;;;;;;;17.98;72.96;99879.92;254266;1104;116268;-65
2021/07/24 00:22:14;;;;;;;22.73;18.35;;;;;;;17.89;73.17;99866.22;255249;1104;116128;-67
2021/07/24 00:27:19;;;;;;;33.48;18.80;;;;;;;17.86;73.13;99872.17;254567;1104;116884;-66
2021/07/24 00:32:27;;;;;;;26.65;18.10;;;;;;;17.80;72.32;99870.58;254918;1104;117439;-66
2021/07/24 00:37:33;;;;;;;27.27;18.20;;;;;;;17.81;73.72;99864.91;256030;1104;116777;-67
2021/07/24 00:42:39;;;;;;;22.38;17.98;;;;;;;17.84;73.76;99869.75;255577;1104;116239;-66
2021/07/24 00:47:48;;;;;;;21.13;16.48;;;;;;;17.83;73.68;99868.14;254084;1104;117585;-66
2021/07/24 00:52:59;;;;;;;24.65;16.00;;;;;;;17.82;73.98;99868.42;254517;1104;117100;-66
2021/07/24 00:58:23;;;;;;;28.37;17.37;;;;;;;17.81;74.23;99870.30;255064;1098;117999;-69
2021/07/24 01:03:29;;;;;;;23.30;18.03;;;;;;;17.87;74.08;99871.09;254926;1104;115994;-68
2021/07/24 01:08:36;;;;;;;25.83;17.48;;;;;;;17.94;74.17;99874.28;256684;1104;117101;-65
2021/07/24 01:13:41;;;;;;;23.65;16.98;;;;;;;17.86;73.76;99868.67;253718;1104;117541;-67
2021/07/24 01:18:46;;;;;;;20.03;16.28;;;;;;;17.77;73.88;99869.25;253670;1104;117738;-67
2021/07/24 01:23:50;;;;;;;23.08;16.88;;;;;;;17.69;74.19;99867.16;257319;1104;116353;-66
2021/07/24 01:28:56;;;;;;;26.03;18.20;;;;;;;17.67;74.68;99858.55;257269;1104;117943;-66
2021/07/24 01:34:02;;;;;;;29.23;16.90;;;;;;;17.76;74.50;99856.85;257102;1104;116710;-68
2021/07/24 01:39:10;;;;;;;21.58;16.95;;;;;;;17.78;74.34;99859.27;257074;1104;115319;-68
2021/07/24 01:44:14;;;;;;;21.80;16.50;;;;;;;17.79;74.46;99855.48;257154;1104;115672;-68
2021/07/24 01:54:51;;;;;;;22.43;15.63;;;;;;;17.82;74.80;99849.55;255073;1104;116579;-70
2021/07/24 02:00:00;;;;;;;20.90;17.30;;;;;;;17.86;74.58;99837.11;255150;1104;115728;-68
2021/07/24 02:05:05;;;;;;;29.48;16.25;;;;;;;17.79;74.54;99839.31;256205;1104;115531;-69
2021/07/24 02:10:10;;;;;;;28.88;17.13;;;;;;;17.69;74.61;99840.20;253619;1104;115666;-69
2021/07/24 02:15:14;;;;;;;27.25;17.18;;;;;;;17.60;74.61;99836.44;254363;1104;115642;-68
2021/07/24 02:20:23;;;;;;;26.03;19.28;;;;;;;17.56;74.91;99838.08;253882;1100;114803;-67
2021/07/24 02:25:29;;;;;;;22.33;17.48;;;;;;;17.58;75.18;99832.41;253731;1104;115110;-66
2021/07/24 02:30:34;;;;;;;24.95;18.85;;;;;;;17.68;75.42;99838.59;253938;1104;115936;-67
2021/07/24 02:35:39;;;;;;;28.13;17.17;;;;;;;17.68;75.20;99833.20;253620;1104;115934;-67
2021/07/24 02:40:44;;;;;;;19.95;15.53;;;;;;;17.69;75.16;99837.50;253685;1104;115449;-70
2021/07/24 02:45:49;;;;;;;20.85;14.90;;;;;;;17.61;75.26;99832.66;253755;1104;115579;-69
2021/07/24 02:50:54;;;;;;;23.80;16.68;;;;;;;17.65;75.65;99827.55;255302;1098;116014;-69
2021/07/24 02:55:59;;;;;;;24.35;17.65;;;;;;;17.68;75.39;99824.30;254400;1100;115972;-70
2021/07/24 03:01:08;;;;;;;25.03;17.70;;;;;;;17.68;75.33;99822.41;254226;1104;116385;-68
2021/07/24 03:06:14;;;;;;;27.45;17.80;;;;;;;17.73;75.44;99822.36;256347;1104;115652;-69
2021/07/24 03:11:19;;;;;;;22.75;17.20;;;;;;;17.78;75.46;99825.02;256067;1104;115791;-70
2021/07/24 03:16:23;;;;;;;21.50;16.80;;;;;;;17.82;75.40;99828.77;256344;1104;115324;-69
2021/07/24 03:21:29;;;;;;;21.10;16.38;;;;;;;17.75;75.47;99827.47;256199;1104;116060;-69
2021/07/24 03:26:34;;;;;;;19.63;15.83;;;;;;;17.77;75.42;99823.41;256383;1104;115247;-69
2021/07/24 03:31:42;;;;;;;19.83;15.70;;;;;;;17.88;75.81;99820.66;257187;1104;115533;-69
2021/07/24 03:36:47;;;;;;;22.45;14.73;;;;;;;18.00;75.60;99831.91;257175;1104;116274;-68
2021/07/24 03:41:51;;;;;;;25.95;18.15;;;;;;;17.96;75.31;99828.96;255322;1104;116488;-69
2021/07/24 03:46:56;;;;;;;21.80;16.07;;;;;;;17.98;75.40;99831.38;255193;1104;115655;-68
2021/07/24 03:52:00;;;;;;;21.28;15.08;;;;;;;18.12;75.70;99837.73;256656;1100;117356;-69
2021/07/24 03:57:05;;;;;;;22.55;15.35;;;;;;;18.26;75.66;99837.91;255327;1100;115641;-69
2021/07/24 04:02:18;;;;;;;23.10;15.33;;;;;;;18.26;75.33;99838.70;254308;1100;116104;-68
2021/07/24 04:07:25;;;;;;;17.60;15.25;;;;;;;18.20;75.34;99844.42;254863;1100;116360;-68
2021/07/24 04:12:31;;;;;;;;;;;;;;;18.17;75.62;99841.20;254894;1104;116125;-69
2021/07/24 04:17:36;;;;;;;22.68;16.95;;;;;;;18.27;75.76;99842.21;255323;1104;103395;-69
2021/07/24 04:22:42;;;;;;;21.55;13.68;;;;;;;18.35;75.67;99841.58;254328;1104;115780;-68
2021/07/24 04:27:47;;;;;;;28.73;16.30;;;;;;;18.35;75.66;99845.09;255141;1104;115102;-69
2021/07/24 04:32:52;;;;;;;17.55;15.55;;;;;;;18.49;76.13;99840.66;254334;1104;115745;-69
2021/07/24 04:37:58;;;;;;;24.25;15.00;;;;;;;18.51;75.72;99845.77;255596;1104;117561;-69
2021/07/24 04:43:02;;;;;;;21.28;16.10;;;;;;;18.67;76.21;99833.75;254825;1100;116145;-69
2021/07/24 04:48:10;;;;;;;24.80;16.33;;;;;;;18.82;75.66;99840.91;254116;1104;115664;-69
2021/07/24 04:53:16;;;;;;;21.65;17.00;;;;;;;18.93;75.54;99842.41;254287;1100;115595;-69
2021/07/24 04:58:21;;;;;;;;;;;;;;;19.12;75.65;99837.86;254651;1104;115604;-69
2021/07/24 05:03:27;;;;;;;22.15;16.85;;;;;;;19.28;75.44;99846.57;254879;1104;103078;-69
2021/07/24 05:08:36;;;;;;;24.88;16.70;;;;;;;19.45;75.30;99837.99;254445;1104;116005;-69
2021/07/24 05:13:42;;;;;;;24.15;17.03;;;;;;;19.60;75.44;99837.80;254925;1104;116235;-68
2021/07/24 05:18:47;;;;;;;26.03;16.38;;;;;;;19.76;74.60;99841.91;254240;1104;116294;-68
2021/07/24 05:23:53;;;;;;;18.18;14.85;;;;;;;19.92;74.36;99845.19;254353;1104;116523;-69
2021/07/24 05:28:58;;;;;;;21.30;15.73;;;;;;;20.10;74.10;99846.28;253977;1104;117855;-69
2021/07/24 05:34:04;;;;;;;20.28;16.93;;;;;;;20.37;73.51;99838.28;253984;1100;116692;-69
2021/07/24 05:39:10;;;;;;;20.10;15.45;;;;;;;20.57;73.37;99844.43;257066;1104;117337;-70
2021/07/24 05:44:18;;;;;;;22.48;15.93;;;;;;;20.83;73.14;99834.73;257214;1104;117080;-69
2021/07/24 05:49:23;;;;;;;19.68;13.15;;;;;;;21.19;72.82;99834.84;256922;1104;117308;-69
2021/07/24 05:54:28;;;;;;;18.95;13.48;;;;;;;21.41;72.11;99839.55;256116;1103;117843;-69
2021/07/24 05:59:36;;;;;;;18.48;13.68;;;;;;;21.56;71.33;99831.11;254628;1104;116757;-70
2021/07/24 06:04:43;;;;;;;16.95;13.50;;;;;;;21.93;71.35;99837.33;256487;1104;116381;-69
2021/07/24 06:09:47;;;;;;;18.08;10.43;;;;;;;22.32;70.16;99840.18;254434;1104;115881;-70
2021/07/24 06:14:52;;;;;;;14.68;11.30;;;;;;;22.48;69.38;99840.61;254199;1104;117469;-69
2021/07/24 06:19:57;;;;;;;14.90;12.10;;;;;;;22.77;68.89;99845.55;254310;1100;115989;-69
2021/07/24 06:25:03;;;;;;;17.35;13.98;;;;;;;22.86;68.55;99843.72;254790;1104;116709;-69
2021/07/24 06:30:11;;;;;;;14.27;10.63;;;;;;;22.90;68.55;99841.98;255341;1104;116060;-69
2021/07/24 06:35:15;;;;;;;15.78;11.63;;;;;;;22.95;67.31;99841.81;254223;1104;115436;-69
2021/07/24 06:40:20;;;;;;;17.03;11.15;;;;;;;23.09;66.96;99839.80;254813;1104;116557;-68
2021/07/24 06:45:25;;;;;;;;;;;;;;;23.24;66.55;99848.63;254373;1100;118276;-68
2021/07/24 06:50:31;;;;;;;12.10;10.90;;;;;;;;;;255806;1104;103717;-69
2021/07/24 06:55:35;;;;;;;;;;;;;;;23.35;65.41;99850.74;255695;1104;103117;-68
2021/07/24 07:00:39;;;;;;;14.98;8.88;;;;;;;23.38;65.50;99855.55;255516;1098;105547;-68
2021/07/24 07:05:45;;;;;;;14.15;9.60;;;;;;;23.44;64.99;99846.13;254298;1104;115904;-69
2021/07/24 07:10:49;;;;;;;;;;;;;;;23.57;65.28;99860.73;254087;1104;115275;-69
2021/07/24 07:15:54;;;;;;;13.30;10.80;;;;;;;23.82;64.78;99861.91;256639;1104;103904;-69
2021/07/24 07:20:59;;;;;;;13.73;10.68;;;;;;;24.06;63.93;99862.22;254409;1104;116650;-69
2021/07/24 07:26:03;;;;;;;12.13;10.85;;;;;;;24.27;63.89;99867.83;254274;1104;115956;-69
2021/07/24 07:31:08;;;;;;;12.58;10.63;;;;;;;24.38;63.43;99866.38;256096;1104;115788;-69
2021/07/24 07:36:12;;;;;;;16.23;12.48;;;;;;;24.39;62.87;99876.16;254122;1104;115581;-68
2021/07/24 07:41:18;;;;;;;12.73;11.18;;;;;;;24.57;62.25;99881.56;255943;1104;116697;-69
2021/07/24 07:46:23;;;;;;;15.73;11.35;;;;;;;24.81;62.42;99870.91;257117;1104;115967;-69
2021/07/24 07:51:28;;;;;;;13.55;10.43;;;;;;;24.86;61.78;99876.19;257150;1104;116123;-69
2021/07/24 07:56:33;;;;;;;14.86;11.48;;;;;;;24.90;61.50;99885.31;256758;1104;116518;-69
2021/07/24 08:01:37;;;;;;;13.30;11.70;;;;;;;24.90;60.47;99885.31;255391;1104;115279;-68
2021/07/24 08:06:43;;;;;;;15.40;12.80;;;;;;;24.83;60.34;99880.36;256898;1104;115509;-68
2021/07/24 08:11:49;;;;;;;11.94;9.84;;;;;;;24.91;60.75;99889.64;256000;1104;115160;-69
2021/07/24 08:16:55;;;;;;;12.55;11.33;;;;;;;24.93;59.95;99886.59;255658;1098;115793;-71
2021/07/24 08:22:00;;;;;;;14.70;11.38;;;;;;;24.98;59.84;99887.25;254200;1104;116486;-69
2021/07/24 08:27:05;;;;;;;15.13;11.13;;;;;;;25.06;59.64;99883.70;254146;1104;205132;-69
2021/07/24 08:32:11;;;;;;;15.90;10.47;;;;;;;24.92;59.47;99884.99;254600;1104;116600;-69
2021/07/24 08:37:19;;;;;;;13.50;12.08;;;;;;;24.77;59.85;99883.58;254850;1104;117150;-68
2021/07/24 08:42:41;;;;;;;19.20;12.23;;;;;;;24.82;59.52;99886.14;254203;1104;115833;-68
2021/07/24 08:47:47;;;;;;;12.50;11.30;;;;;;;25.01;59.24;99889.33;254296;1104;116394;-69
2021/07/24 08:53:01;;;;;;;18.98;12.43;;;;;;;25.14;58.47;99880.11;254453;1104;116709;-69
2021/07/24 08:58:11;;;;;;;17.63;11.90;;;;;;;25.39;58.94;99880.30;254469;1100;115968;-69
2021/07/24 09:03:19;;;;;;;21.38;12.65;;;;;;;25.62;57.19;99873.44;255062;1104;116303;-71
2021/07/24 09:08:25;;;;;;;16.00;12.23;;;;;;;25.85;57.33;99876.66;255288;1104;115536;-70
2021/07/24 09:13:31;;;;;;;10.70;9.35;;;;;;;26.16;55.90;99859.86;254195;1104;116346;-70
2021/07/24 09:18:38;;;;;;;15.33;10.55;;;;;;;26.49;54.85;99851.69;254036;1104;115931;-70
2021/07/24 09:23:47;;;;;;;13.83;10.43;;;;;;;26.70;54.15;99851.61;254101;1104;115679;-70
2021/07/24 09:29:10;;;;;;;14.93;10.45;;;;;;;26.89;53.25;99853.81;256134;1104;116197;-70
2021/07/24 09:34:16;;;;;;;12.23;10.30;;;;;;;27.08;53.22;99851.34;254190;1104;116207;-70
2021/07/24 09:39:26;;;;;;;11.48;9.65;;;;;;;27.18;52.10;99858.30;254354;1104;116685;-71
2021/07/24 09:44:33;;;;;;;11.98;10.75;;;;;;;27.42;51.93;99855.54;255332;1104;116608;-69
2021/07/24 09:49:38;;;;;;;15.05;10.15;;;;;;;27.57;50.59;99851.28;257290;1104;117344;-69
2021/07/24 09:54:44;;;;;;;16.50;9.68;;;;;;;27.61;49.90;99839.33;257271;1104;116918;-70
2021/07/24 09:59:50;;;;;;;9.78;8.78;;;;;;;27.68;49.87;99828.59;257246;1104;116340;-70
2021/07/24 10:04:55;;;;;;;10.13;9.20;;;;;;;27.69;49.42;99821.97;256542;1104;115416;-70
2021/07/24 10:10:07;;;;;;;10.03;8.88;;;;;;;28.00;49.17;99815.02;257337;1104;115267;-70
2021/07/24 10:15:14;;;;;;;11.30;8.15;;;;;;;28.20;48.01;99813.20;255046;1104;117583;-70
2021/07/24 10:20:21;;;;;;;9.10;7.88;;;;;;;28.36;48.02;99812.13;255745;1104;117414;-69
2021/07/24 10:25:26;;;;;;;16.63;10.70;;;;;;;28.55;47.11;99813.37;254921;1104;116682;-69
2021/07/24 10:30:33;;;;;;;11.93;8.20;;;;;;;28.74;46.73;99811.50;254129;1104;117196;-70
2021/07/24 10:35:43;;;;;;;12.65;8.83;;;;;;;28.65;46.19;99805.42;255062;1098;117618;-70
2021/07/24 10:40:47;;;;;;;9.40;8.37;;;;;;;28.42;45.83;99798.95;254329;1104;116003;-70
2021/07/24 10:45:55;;;;;;;9.00;8.10;;;;;;;28.15;46.02;99801.34;254453;1104;118442;-70
2021/07/24 10:51:02;;;;;;;;;;;;;;;27.95;45.62;99802.36;254507;1104;116442;-71
2021/07/24 10:56:35;;;;;;;17.47;9.47;;;;;;;28.13;45.27;99794.61;255597;1104;103051;-69
2021/07/24 11:01:49;;;;;;;12.88;8.98;;;;;;;28.30;44.65;99791.59;254352;1099;115585;-69
2021/07/24 11:07:21;;;;;;;10.57;8.70;;;;;;;28.61;44.48;99795.51;254332;1104;116004;-70
2021/07/24 11:12:38;;;;;;;8.85;7.73;;;;;;;29.04;43.27;99797.38;254417;1104;116041;-70
2021/07/24 11:17:44;;;;;;;9.20;8.30;;;;;;;29.25;43.94;99791.56;254387;1104;115120;-70
2021/07/24 11:23:05;;;;;;;10.70;8.70;;;;;;;29.04;43.23;99791.89;254317;1098;115689;-70
2021/07/24 11:28:24;;;;;;;12.18;9.60;;;;;;;28.72;42.73;99786.41;255024;1104;114936;-70
2021/07/24 11:33:30;;;;;;;16.45;9.28;;;;;;;28.37;43.19;99783.56;254874;1099;115220;-71
2021/07/24 11:38:36;;;;;;;14.73;9.48;;;;;;;28.28;43.49;99787.61;254303;1104;116928;-70
2021/07/24 11:43:40;;;;;;;9.93;7.55;;;;;;;28.26;43.62;99796.18;254253;1104;117757;-70
2021/07/24 11:48:44;;;;;;;10.40;9.48;;;;;;;28.28;43.57;99788.41;254020;1104;116106;-69
2021/07/24 11:53:50;;;;;;;10.97;9.23;;;;;;;28.29;43.89;99792.73;254295;1104;116759;-69
2021/07/24 11:58:55;;;;;;;11.93;10.63;;;;;;;28.33;43.47;99793.63;256900;1104;116165;-70
2021/07/24 12:04:04;;;;;;;;;;;;;;;28.33;43.11;99793.63;254924;1104;116021;-69
2021/07/24 12:09:11;;;;;;;9.95;8.00;;;;;;;28.25;43.96;99805.55;257855;1104;101752;-70
2021/07/24 12:14:21;;;;;;;9.68;8.68;;;;;;;28.13;44.18;99786.39;256955;1104;115150;-70
2021/07/24 12:19:44;;;;;;;11.63;7.77;;;;;;;28.38;43.78;99787.09;254419;1104;116029;-69
2021/07/24 12:24:50;;;;;;;10.13;8.25;;;;;;;28.58;43.80;99782.50;257129;1104;115489;-70
2021/07/24 12:29:59;;;;;;;12.08;9.23;;;;;;;28.85;43.69;99784.38;254811;1104;115528;-69
2021/07/24 12:35:24;;;;;;;13.48;9.28;;;;;;;29.14;42.68;99780.34;256109;1104;116061;-70
2021/07/24 12:40:31;;;;;;;14.28;8.80;;;;;;;29.22;41.71;99778.55;254575;1099;115849;-70
2021/07/24 12:45:37;;;;;;;11.77;9.97;;;;;;;29.08;41.16;99779.02;255641;1104;115459;-70
2021/07/24 12:50:41;;;;;;;26.18;10.98;;;;;;;29.18;42.06;99774.93;254846;1104;115618;-70
2021/07/24 12:55:52;;;;;;;12.35;8.65;;;;;;;29.07;41.69;99772.73;254824;1104;116085;-70
2021/07/24 13:01:07;;;;;;;11.83;8.68;;;;;;;29.18;41.85;99756.52;254934;1104;116410;-70
2021/07/24 13:06:14;;;;;;;10.08;8.85;;;;;;;29.32;42.20;99745.05;254249;1104;116356;-70
2021/07/24 13:11:19;;;;;;;9.78;8.88;;;;;;;29.50;41.24;99759.98;255065;1104;116237;-69
2021/07/24 13:16:24;;;;;;;24.43;11.93;;;;;;;29.54;41.39;99741.63;254140;1097;116871;-68
2021/07/24 13:21:29;;;;;;;10.60;9.50;;;;;;;29.60;40.84;99742.92;255423;1104;116505;-71
2021/07/24 13:31:53;;;;;;;10.58;9.18;;;;;;;29.39;40.52;99736.95;254140;1104;116105;-69
2021/07/24 13:36:59;;;;;;;10.83;8.98;;;;;;;29.41;39.88;99734.67;254805;1104;116308;-69
2021/07/24 13:42:03;;;;;;;11.75;9.68;;;;;;;29.42;39.66;99736.26;254079;1104;116242;-69
2021/07/24 13:47:07;;;;;;;;;;;;;;;29.34;39.57;99734.52;255203;1104;115766;-69
2021/07/24 13:52:11;;;;;;;10.18;9.13;;;;;;;29.31;39.69;99732.48;255021;1104;103136;-67
2021/07/24 13:57:17;;;;;;;12.00;10.73;;;;;;;29.24;38.66;99735.86;254830;1104;115653;-71
2021/07/24 14:02:22;;;;;;;9.53;8.53;;;;;;;29.09;39.80;99737.48;257181;1104;115687;-71
2021/07/24 14:07:27;;;;;;;15.80;9.87;;;;;;;29.02;40.35;99745.59;255166;1104;114742;-70
2021/07/24 14:12:33;;;;;;;11.48;9.70;;;;;;;29.01;39.82;99738.51;257076;1104;117762;-70
2021/07/24 14:17:58;;;;;;;17.70;10.70;;;;;;;29.05;39.88;99744.05;257149;1104;115548;-69
2021/07/24 14:23:02;;;;;;;11.23;9.03;;;;;;;29.06;39.42;99749.18;257141;1104;115853;-70
2021/07/24 14:28:08;;;;;;;11.10;10.00;;;;;;;29.08;39.97;99748.83;257141;1104;118014;-70
2021/07/24 14:33:13;;;;;;;10.80;8.53;;;;;;;29.17;39.06;99754.92;254543;1104;115382;-69
2021/07/24 14:38:20;;;;;;;11.98;9.83;;;;;;;29.07;38.37;99748.03;254150;1104;115686;-69
2021/07/24 14:43:25;;;;;;;10.80;9.70;;;;;;;29.02;39.03;99740.10;255494;1104;115374;-71
2021/07/24 14:48:29;;;;;;;10.33;9.33;;;;;;;28.91;38.89;99744.54;255530;1104;115250;-71
2021/07/24 14:53:33;;;;;;;;;;;;;;;28.78;39.51;99746.55;255429;1104;116306;-71
2021/07/24 14:58:39;;;;;;;11.60;10.43;;;;;;;28.74;38.96;99748.41;256109;1098;102978;-69
2021/07/24 15:03:45;;;;;;;11.35;9.15;;;;;;;28.75;39.67;99746.46;255286;1104;115674;-69
2021/07/24 15:08:50;;;;;;;11.28;9.63;;;;;;;28.81;39.00;99751.36;254974;1104;116303;-68
2021/07/24 15:13:55;;;;;;;10.78;9.73;;;;;;;28.75;39.02;99732.75;253936;1104;115645;-70
2021/07/24 15:19:01;;;;;;;10.23;9.17;;;;;;;28.72;39.45;99738.97;254181;1104;115780;-70
2021/07/24 15:24:08;;;;;;;9.90;8.73;;;;;;;28.59;38.57;99731.98;254301;1104;116100;-70
2021/07/24 15:29:13;;;;;;;10.73;9.30;;;;;;;28.46;38.22;99740.29;254608;1104;115998;-70
2021/07/24 15:34:18;;;;;;;10.83;9.70;;;;;;;28.39;38.75;99728.38;254186;1104;116116;-72
2021/07/24 15:39:23;;;;;;;;;;;;;;;28.34;39.12;99717.67;255317;1104;116143;-70
2021/07/24 15:44:27;;;;;;;12.63;8.63;;;;;;;28.18;38.03;99710.19;256286;1104;103057;-70
2021/07/24 15:49:31;;;;;;;14.40;10.28;;;;;;;28.03;38.51;99707.45;254734;1097;117321;-70
2021/07/24 15:54:37;;;;;;;13.95;11.08;;;;;;;27.81;39.26;99697.88;254134;1104;116505;-69
2021/07/24 15:59:41;;;;;;;;;;;;;;;27.66;39.50;99696.69;255348;1104;116317;-70
2021/07/24 16:04:48;;;;;;;11.67;9.40;;;;;;;27.48;39.67;99698.12;255364;1098;103106;-70
2021/07/24 16:09:53;;;;;;;14.80;9.95;;;;;;;27.37;40.05;99694.27;254352;1104;116960;-70
2021/07/24 16:14:58;;;;;;;13.23;9.63;;;;;;;27.21;40.47;99690.69;254233;1104;115930;-68
2021/07/24 16:20:04;;;;;;;12.10;9.30;;;;;;;27.04;40.99;99695.27;255819;1103;116599;-68
2021/07/24 16:25:09;;;;;;;11.00;9.53;;;;;;;26.95;40.46;99685.56;256218;1104;116905;-69
2021/07/24 16:30:13;;;;;;;12.38;10.50;;;;;;;26.84;41.17;99682.52;257039;1104;118187;-68
2021/07/24 16:35:18;;;;;;;;;;;;;;;26.76;41.14;99672.50;256711;1104;115542;-70
2021/07/24 16:40:23;;;;;;;10.55;9.53;;;;;;;26.69;41.25;99672.27;256344;1104;102929;-70
2021/07/24 16:45:28;;;;;;;11.03;9.78;;;;;;;26.61;41.67;99673.19;255909;1100;115350;-69
2021/07/24 16:50:32;;;;;;;;;;;;;;;26.51;42.53;99669.00;255058;1104;116393;-69
2021/07/24 16:55:35;;;;;;;12.20;10.80;;;;;;;26.34;42.67;99670.00;255676;1104;103178;-71
2021/07/24 17:00:40;;;;;;;13.78;9.70;;;;;;;26.23;43.24;99673.52;254071;1100;116516;-70
2021/07/24 17:05:44;;;;;;;12.20;9.83;;;;;;;26.09;43.75;99663.70;254275;1098;116174;-70
2021/07/24 17:10:48;;;;;;;12.18;10.48;;;;;;;25.97;44.60;99668.36;254686;1104;117554;-69
2021/07/24 17:15:52;;;;;;;12.95;10.63;;;;;;;25.78;45.95;99664.21;254581;1104;116013;-70
2021/07/24 17:21:01;;;;;;;17.50;11.03;;;;;;;25.63;47.19;99662.13;254475;1104;116815;-69
2021/07/24 17:26:07;;;;;;;13.15;10.85;;;;;;;25.45;47.52;99649.74;254210;1104;120413;-68
2021/07/24 17:31:16;;;;;;;13.00;11.03;;;;;;;25.27;48.40;99654.57;255079;1104;115906;-69
2021/07/24 17:36:20;;;;;;;15.17;10.47;;;;;;;25.09;48.50;99648.44;254056;1104;115575;-69
2021/07/24 17:41:25;;;;;;;11.37;10.20;;;;;;;24.92;49.66;99654.02;254254;1104;117281;-69
2021/07/24 17:46:29;;;;;;;11.70;10.50;;;;;;;24.72;49.75;99647.42;254251;1104;117354;-70
2021/07/24 17:51:33;;;;;;;15.50;11.00;;;;;;;24.53;50.56;99651.69;254493;1104;115844;-70
2021/07/24 17:56:39;;;;;;;17.03;11.73;;;;;;;24.32;51.30;99647.00;255283;1104;116386;-69
2021/07/24 18:01:43;;;;;;;12.30;10.55;;;;;;;24.11;51.42;99651.56;255785;1104;116739;-69
2021/07/24 18:06:47;;;;;;;16.65;10.75;;;;;;;23.89;52.00;99654.50;255148;1104;116276;-70
2021/07/24 18:11:51;;;;;;;12.60;10.80;;;;;;;23.66;52.48;99660.17;257319;1103;115192;-69
2021/07/24 18:16:55;;;;;;;11.68;10.48;;;;;;;23.45;53.68;99659.22;254720;1104;115979;-68
2021/07/24 18:21:59;;;;;;;11.48;10.38;;;;;;;23.21;53.86;99669.80;253949;1104;117587;-70
2021/07/24 18:27:03;;;;;;;16.43;11.70;;;;;;;22.99;54.52;99665.28;254173;1104;117269;-70
2021/07/24 18:32:07;;;;;;;13.48;11.18;;;;;;;22.73;55.40;99667.94;255312;1104;117776;-68
2021/07/24 18:37:13;;;;;;;17.75;10.88;;;;;;;22.50;55.31;99681.64;257000;1104;115836;-68
2021/07/24 18:42:18;;;;;;;13.28;11.58;;;;;;;22.26;55.66;99669.57;257102;1104;116510;-69
2021/07/24 18:47:22;;;;;;;14.95;11.15;;;;;;;21.95;56.41;99675.78;257086;1104;115691;-68
2021/07/24 18:52:27;;;;;;;11.95;10.78;;;;;;;21.72;56.81;99677.70;256003;1104;115530;-69
2021/07/24 18:57:32;;;;;;;13.50;11.70;;;;;;;21.48;57.48;99682.66;254121;1104;117488;-68
2021/07/24 19:02:37;;;;;;;14.28;11.90;;;;;;;21.36;58.75;99680.52;254666;1104;115682;-68
2021/07/24 19:07:45;;;;;;;15.70;13.60;;;;;;;21.21;58.49;99680.05;254101;1104;116292;-68
2021/07/24 19:12:57;;;;;;;21.53;12.63;;;;;;;21.05;59.14;99691.22;255586;1104;117135;-68
2021/07/24 19:18:03;;;;;;;16.10;13.33;;;;;;;20.95;59.11;99679.79;255254;1104;116348;-68
2021/07/24 19:23:09;;;;;;;18.48;12.38;;;;;;;20.81;59.71;99680.60;254528;1104;117509;-67
2021/07/24 19:28:14;;;;;;;12.88;11.03;;;;;;;20.53;59.71;99681.73;254044;1100;117192;-70
2021/07/24 19:33:20;;;;;;;16.12;13.76;;;;;;;20.27;60.48;99670.58;254224;1099;115741;-70
2021/07/24 19:38:25;;;;;;;23.97;12.83;;;;;;;20.05;61.07;99668.56;254262;1104;116386;-69
2021/07/24 19:43:31;;;;;;;13.40;12.00;;;;;;;19.82;61.23;99670.34;255138;1104;116617;-70
2021/07/24 19:48:36;;;;;;;15.90;12.40;;;;;;;19.66;61.66;99666.27;254129;1104;116108;-71
2021/07/24 19:53:42;;;;;;;23.70;13.83;;;;;;;19.58;62.08;99663.44;254147;1104;116151;-70
2021/07/24 19:58:47;;;;;;;18.85;13.08;;;;;;;19.44;62.13;99676.89;254431;1104;117679;-70
2021/07/24 20:03:53;;;;;;;16.80;13.30;;;;;;;19.36;62.57;99678.34;254312;1104;115714;-68
2021/07/24 20:08:58;;;;;;;14.25;12.45;;;;;;;19.25;63.05;99676.92;255635;1104;116212;-68
2021/07/24 20:14:03;;;;;;;13.65;11.58;;;;;;;19.14;63.04;99672.75;254495;1104;117039;-68
2021/07/24 20:19:12;;;;;;;17.28;12.68;;;;;;;18.97;62.93;99670.53;256227;1098;115832;-68
2021/07/24 20:24:22;;;;;;;23.88;15.33;;;;;;;18.88;63.50;99664.20;257278;1104;116133;-69
2021/07/24 20:29:28;;;;;;;15.53;13.20;;;;;;;18.83;63.69;99658.86;256966;1104;115986;-69
2021/07/24 20:34:36;;;;;;;17.63;15.33;;;;;;;18.79;63.84;99663.23;257248;1104;115962;-68
2021/07/24 20:39:41;;;;;;;20.68;13.85;;;;;;;18.76;64.15;99669.22;256852;1104;116085;-68
2021/07/24 20:44:46;;;;;;;29.78;14.53;;;;;;;18.71;64.32;99651.17;257256;1104;116371;-68
2021/07/24 20:49:51;;;;;;;15.78;12.60;;;;;;;18.50;64.25;99666.81;257337;1104;117720;-68
2021/07/24 20:54:56;;;;;;;23.55;14.98;;;;;;;18.31;64.70;99674.06;256741;1104;117465;-68
2021/07/24 21:00:00;;;;;;;23.18;14.98;;;;;;;18.29;64.79;99672.73;255583;1104;117397;-68
2021/07/24 21:05:05;;;;;;;20.28;15.13;;;;;;;18.35;65.09;99675.06;255396;1104;117603;-67
2021/07/24 21:10:13;;;;;;;15.60;14.00;;;;;;;18.27;65.23;99683.81;254749;1100;116856;-68
2021/07/24 21:15:19;;;;;;;16.78;15.03;;;;;;;18.23;65.88;99677.38;255259;1104;117227;-68
2021/07/24 21:20:23;;;;;;;19.43;15.38;;;;;;;18.16;65.94;99683.11;254321;1104;117107;-68
2021/07/24 21:25:35;;;;;;;16.27;13.97;;;;;;;18.10;66.34;99688.84;254799;1104;115984;-68
2021/07/24 21:30:40;;;;;;;15.45;13.35;;;;;;;17.98;66.54;99683.04;255054;1104;115863;-68
2021/07/24 21:35:45;;;;;;;15.63;13.78;;;;;;;17.87;66.64;99679.63;254987;1104;115391;-68
2021/07/24 21:40:51;;;;;;;23.30;16.00;;;;;;;17.93;67.04;99678.50;254329;1104;116568;-68
2021/07/24 21:45:56;;;;;;;17.18;14.40;;;;;;;17.93;67.15;99681.19;254274;1104;115492;-70
2021/07/24 21:51:01;;;;;;;20.58;16.10;;;;;;;17.88;67.10;99669.64;255258;1104;116855;-68
2021/07/24 21:56:07;;;;;;;16.73;14.53;;;;;;;17.83;67.09;99676.69;254552;1104;115552;-68
2021/07/24 22:01:16;;;;;;;18.88;15.15;;;;;;;17.73;67.30;99668.68;254512;1099;115783;-67
2021/07/24 22:06:23;;;;;;;17.53;15.58;;;;;;;17.63;67.43;99674.15;254188;1104;115852;-67
2021/07/24 22:11:28;;;;;;;16.75;15.15;;;;;;;17.52;67.55;99672.61;254686;1104;116357;-68
2021/07/24 22:16:33;;;;;;;20.80;15.35;;;;;;;17.47;67.68;99670.76;254014;1104;115834;-69
2021/07/24 22:21:40;;;;;;;19.68;15.95;;;;;;;17.51;68.29;99671.00;254696;1104;116417;-68
2021/07/24 22:26:46;;;;;;;17.55;15.75;;;;;;;17.48;68.36;99666.17;254846;1104;117906;-68
2021/07/24 22:31:51;;;;;;;23.53;15.78;;;;;;;17.51;68.36;99671.00;255915;1104;116385;-68
2021/07/24 22:36:57;;;;;;;18.73;15.13;;;;;;;17.51;68.66;99661.03;255391;1104;116979;-67
2021/07/24 22:42:09;;;;;;;17.63;15.30;;;;;;;17.48;68.42;99666.98;254232;1104;116705;-68
2021/07/24 22:47:14;;;;;;;19.05;16.48;;;;;;;17.46;68.47;99657.56;256303;1104;115455;-68
2021/07/24 22:52:19;;;;;;;22.13;17.28;;;;;;;17.40;68.31;99662.22;256799;1104;116730;-68
2021/07/24 22:57:24;;;;;;;16.88;15.13;;;;;;;17.37;69.12;99654.69;257296;1104;115458;-67
2021/07/24 23:02:28;;;;;;;18.40;15.70;;;;;;;17.40;69.15;99656.02;257378;1104;115907;-67
2021/07/24 23:07:33;;;;;;;21.30;14.88;;;;;;;17.37;69.09;99652.00;257226;1104;115816;-67
2021/07/24 23:12:37;;;;;;;18.98;16.25;;;;;;;17.40;69.26;99650.63;256744;1098;115576;-67
2021/07/24 23:17:42;;;;;;;19.48;16.00;;;;;;;17.41;69.29;99644.16;255180;1104;116517;-68